WetterOnline ( https://www.wetteronline.de )

Wetter aktuell Ankershagen

Aktuelles Wetter: Waren (71m)

6-stündlich | Neueste Meldungen
Ortszeit Temperatur Wetter
Sa, 24.10. 20:00 12.8° C bedeckt
Sa, 24.10. 14:00 13.9° C bewölkt
Sa, 24.10. 8:00 12.0° C wolkig
Sa, 24.10. 2:00 9.6° C Nebel
Fr, 23.10. 20:00 11.5° C bedeckt
Fr, 23.10. 14:00 13.9° C bedeckt
Fr, 23.10. 8:00 10.6° C fast wolkenlos
Fr, 23.10. 2:00 12.5° C wolkenlos
Ortszeit Temperatur Wetter
Sa, 24.10. 22:00 12.2° C wolkig
Sa, 24.10. 21:50 12.2° C wolkig
Sa, 24.10. 21:40 12.5° C bewölkt
Sa, 24.10. 21:30 13.0° C bedeckt
Sa, 24.10. 21:20 13.0° C bedeckt
Sa, 24.10. 21:10 13.2° C bedeckt
Sa, 24.10. 21:00 13.0° C bedeckt
Sa, 24.10. 20:30 12.4° C bedeckt
Sa, 24.10. 20:00 12.8° C bedeckt
Sa, 24.10. 19:30 12.9° C bedeckt
Sa, 24.10. 19:00 12.6° C bedeckt
Ortszeit Relative Feuchte Sichtweite
Sa, 24.10. 20:00 90% 35 km
Sa, 24.10. 14:00 73% >70 km
Sa, 24.10. 8:00 94% 7 km
Sa, 24.10. 2:00 99% 0.2 km
Fr, 23.10. 20:00 97% 10 km
Fr, 23.10. 14:00 78% 45 km
Fr, 23.10. 8:00 95% 15 km
Fr, 23.10. 2:00 85% >70 km
Ortszeit Relative Feuchte Sichtweite
Sa, 24.10. 22:00 92% -
Sa, 24.10. 21:50 92% -
Sa, 24.10. 21:40 90% -
Sa, 24.10. 21:30 86% 50 km
Sa, 24.10. 21:20 86% -
Sa, 24.10. 21:10 84% -
Sa, 24.10. 21:00 87% 45 km
Sa, 24.10. 20:30 92% 29 km
Sa, 24.10. 20:00 90% 35 km
Sa, 24.10. 19:30 89% 40 km
Sa, 24.10. 19:00 89% 50 km
Ortszeit Niederschlagsmenge Niederschlagsart
Sa, 24.10. 20:00 0.1 l/m2 in 12 Std. Regen
Sa, 24.10. 14:00 0.0 l/m2 in 6 Std. -
Sa, 24.10. 8:00 0.2 l/m2 in 12 Std. Regen
Sa, 24.10. 2:00 0.1 l/m2 in 6 Std. -
Fr, 23.10. 20:00 3 l/m2 in 12 Std. Regen
Fr, 23.10. 14:00 0.0 l/m2 in 6 Std. -
Fr, 23.10. 8:00 2 l/m2 in 12 Std. -
Fr, 23.10. 2:00 2 l/m2 in 6 Std. Regen
Ortszeit Niederschlagsmenge Niederschlagsart
Sa, 24.10. 22:00 0.0 l/m2 in 1 Std. -
Sa, 24.10. 21:50 keine Meldung -
Sa, 24.10. 21:40 keine Meldung -
Sa, 24.10. 21:30 0.0 l/m2 in 1 Std. -
Sa, 24.10. 21:20 keine Meldung -
Sa, 24.10. 21:10 keine Meldung -
Sa, 24.10. 21:00 0.0 l/m2 in 1 Std. -
Sa, 24.10. 20:30 0.0 l/m2 in 1 Std. -
Sa, 24.10. 20:00 0.0 l/m2 in 1 Std. Regen
Sa, 24.10. 19:30 0.0 l/m2 in 1 Std. -
Sa, 24.10. 19:00 0.1 l/m2 in 1 Std. Sprühregen
Ortszeit Stärke Spitze Richtung
km/h Bft. km/h Grad Sektor
Sa, 24.10. 20:00 9 2 39 190° S
Sa, 24.10. 14:00 13 3 39 240° SW
Sa, 24.10. 8:00 13 3 24 210° SW
Sa, 24.10. 2:00 15 3 22 210° SW
Fr, 23.10. 20:00 4 1 18 190° S
Fr, 23.10. 14:00 7 2 26 220° SW
Fr, 23.10. 8:00 9 2 22 210° SW
Fr, 23.10. 2:00 11 2 40 230° SW
Ortszeit Stärke Spitze Richtung
km/h Bft. km/h Grad Sektor
Sa, 24.10. 22:00 13 3 24 200° S
Sa, 24.10. 21:50 13 3 - 200° S
Sa, 24.10. 21:40 15 3 - 200° S
Sa, 24.10. 21:30 15 3 24 190° S
Sa, 24.10. 21:20 15 3 - 190° S
Sa, 24.10. 21:10 14 3 - 180° S
Sa, 24.10. 21:00 14 3 22 190° S
Sa, 24.10. 20:30 7 2 18 190° S
Sa, 24.10. 20:00 9 2 20 190° S
Sa, 24.10. 19:30 13 3 20 180° S
Sa, 24.10. 19:00 9 2 15 180° S
Ortszeit Untergrenze Bedeckung Gattung
total tief tief mittel hoch
Sa, 24.10. 20:00 1050 m 8/8 8/8 - - -
Sa, 24.10. 14:00 630 m 7/8 7/8 - - -
Sa, 24.10. 8:00 270 m 7/8 3/8 - - -
Sa, 24.10. 2:00 <30 m 8/8 0/8 - - -
Fr, 23.10. 20:00 3000 m 8/8 8/8 - - -
Fr, 23.10. 14:00 4800 m 8/8 8/8 - - -
Fr, 23.10. 8:00 9000 m 2/8 0/8 - - -
Fr, 23.10. 2:00 - 0/8 0/8 - - -
Ortszeit Bedeckungsgrad in Achtel und Wolkenuntergrenze
Sa, 24.10. 22:00 3(1500m) 7(10500m)
Sa, 24.10. 21:50 3(1500m) 7(10500m)
Sa, 24.10. 21:40 7(1500m) 7(10500m)
Sa, 24.10. 21:30 8(1500m) 7(10500m)
Sa, 24.10. 21:20 8(1500m)
Sa, 24.10. 21:10 8(1500m)
Sa, 24.10. 21:00 8(1500m)
Sa, 24.10. 20:30 4(1050m) 8(1500m)
Sa, 24.10. 20:00 7(1050m) 7(1320m) 8(1800m)
Sa, 24.10. 19:30 3(900m) 7(1350m) 8(1800m)
Sa, 24.10. 19:00 3(840m) 6(1350m) 8(1500m)
Ortszeit Luftdruck NN (hPa) Tendenz (hPa in 3 Std.)
Sa, 24.10. 20:00 1011 - 0,6
Sa, 24.10. 14:00 1012 + 0,3
Sa, 24.10. 8:00 1010 + 0,8
Sa, 24.10. 2:00 1011 0,0
Fr, 23.10. 20:00 1010 - 0,9
Fr, 23.10. 14:00 1011 - 0,6
Fr, 23.10. 8:00 1011 + 0,3
Fr, 23.10. 2:00 1011 + 0,2
Ortszeit Luftdruck NN (hPa) Tendenz (hPa in 3 Std.)
Sa, 24.10. 22:00 1011 - 0,7
Sa, 24.10. 21:50 1011 keine Meldung
Sa, 24.10. 21:40 1011 keine Meldung
Sa, 24.10. 21:30 1011 - 0,7
Sa, 24.10. 21:20 1011 keine Meldung
Sa, 24.10. 21:10 1011 keine Meldung
Sa, 24.10. 21:00 1011 - 0,5
Sa, 24.10. 20:30 1011 - 0,5
Sa, 24.10. 20:00 1011 - 0,6
Sa, 24.10. 19:30 1011 - 0,2
Sa, 24.10. 19:00 1011 - 0,1
Ortszeit Schneehöhe (cm)
Sa, 24.10. 20:00 0
Sa, 24.10. 14:00 0
Sa, 24.10. 8:00 0
Sa, 24.10. 2:00 0
Fr, 23.10. 20:00 0
Fr, 23.10. 14:00 0
Fr, 23.10. 8:00 0
Fr, 23.10. 2:00 0
Ortszeit Schneehöhe (cm)
Sa, 24.10. 22:00 0
Sa, 24.10. 21:50 0
Sa, 24.10. 21:40 0
Sa, 24.10. 21:30 0
Sa, 24.10. 21:20 0
Sa, 24.10. 21:10 0
Sa, 24.10. 21:00 0
Sa, 24.10. 20:30 0
Sa, 24.10. 20:00 0
Sa, 24.10. 19:30 0
Sa, 24.10. 19:00 0
Link zu dieser Seite / Seite empfehlen

Das Wetter in ...